sensor_id;sensor_type;location;lat;lon;timestamp;pressure;altitude;pressure_sealevel;temperature;humidity
48792;BME280;34587;48.816;9.420;2023-04-15T04:16:51;97837.66;;;2.56;95.25
48792;BME280;34587;48.816;9.420;2023-04-15T04:19:16;97848.75;;;2.67;95.33
48792;BME280;34587;48.816;9.420;2023-04-15T04:21:44;97849.59;;;2.65;94.72
48792;BME280;34587;48.816;9.420;2023-04-15T04:24:09;97849.63;;;2.49;94.54
48792;BME280;34587;48.816;9.420;2023-04-15T04:26:34;97855.59;;;2.53;94.71
48792;BME280;34587;48.816;9.420;2023-04-15T04:29:00;97860.72;;;2.38;95.56
48792;BME280;34587;48.816;9.420;2023-04-15T04:31:25;97858.13;;;2.27;96.09
48792;BME280;34587;48.816;9.420;2023-04-15T04:33:51;97859.00;;;2.34;96.60
48792;BME280;34587;48.816;9.420;2023-04-15T04:36:16;97859.00;;;2.15;97.22
48792;BME280;34587;48.816;9.420;2023-04-15T04:38:41;97865.81;;;2.16;98.33
48792;BME280;34587;48.816;9.420;2023-04-15T04:41:07;97864.09;;;2.30;99.16
48792;BME280;34587;48.816;9.420;2023-04-15T04:43:32;97865.81;;;2.35;99.54
48792;BME280;34587;48.816;9.420;2023-04-15T04:45:57;97866.66;;;2.20;99.31
48792;BME280;34587;48.816;9.420;2023-04-15T04:48:22;97870.91;;;2.22;99.26
48792;BME280;34587;48.816;9.420;2023-04-15T04:50:48;97862.41;;;2.20;98.94
48792;BME280;34587;48.816;9.420;2023-04-15T04:53:13;97870.09;;;2.37;98.55
48792;BME280;34587;48.816;9.420;2023-04-15T04:55:39;97869.22;;;2.34;96.97
48792;BME280;34587;48.816;9.420;2023-04-15T04:58:04;97859.84;;;2.54;95.86
48792;BME280;34587;48.816;9.420;2023-04-15T05:00:29;97874.31;;;2.49;95.48
48792;BME280;34587;48.816;9.420;2023-04-15T05:02:55;97857.28;;;2.48;94.86
48792;BME280;34587;48.816;9.420;2023-04-15T05:05:20;97858.16;;;2.28;95.55
48792;BME280;34587;48.816;9.420;2023-04-15T05:07:46;97859.88;;;2.37;96.17
48792;BME280;34587;48.816;9.420;2023-04-15T05:10:13;97859.84;;;2.26;96.33
48792;BME280;34587;48.816;9.420;2023-04-15T05:12:39;97859.00;;;2.27;97.34
48792;BME280;34587;48.816;9.420;2023-04-15T05:15:05;97861.56;;;2.40;97.55
48792;BME280;34587;48.816;9.420;2023-04-15T05:17:30;97858.13;;;2.36;97.63
48792;BME280;34587;48.816;9.420;2023-04-15T05:19:57;97859.00;;;2.43;96.67
48792;BME280;34587;48.816;9.420;2023-04-15T05:22:22;97857.28;;;2.51;95.79
48792;BME280;34587;48.816;9.420;2023-04-15T05:24:48;97855.56;;;2.68;94.18
48792;BME280;34587;48.816;9.420;2023-04-15T05:27:13;97854.72;;;2.57;93.97
48792;BME280;34587;48.816;9.420;2023-04-15T05:29:38;97858.94;;;2.75;95.32
48792;BME280;34587;48.816;9.420;2023-04-15T05:32:04;97853.00;;;2.80;93.68
48792;BME280;34587;48.816;9.420;2023-04-15T05:34:29;97857.28;;;2.66;93.29
48792;BME280;34587;48.816;9.420;2023-04-15T05:36:55;97862.38;;;2.69;92.97
48792;BME280;34587;48.816;9.420;2023-04-15T05:39:20;97858.94;;;2.82;92.70
48792;BME280;34587;48.816;9.420;2023-04-15T05:41:46;97864.91;;;2.81;92.30
48792;BME280;34587;48.816;9.420;2023-04-15T05:44:12;97864.03;;;2.92;93.77
48792;BME280;34587;48.816;9.420;2023-04-15T05:46:37;97864.00;;;3.07;92.38
48792;BME280;34587;48.816;9.420;2023-04-15T05:49:02;97863.09;;;3.17;90.61
48792;BME280;34587;48.816;9.420;2023-04-15T05:51:27;97868.22;;;3.19;90.38
48792;BME280;34587;48.816;9.420;2023-04-15T05:53:53;97869.03;;;3.34;89.31
48792;BME280;34587;48.816;9.420;2023-04-15T05:56:18;97875.81;;;3.42;88.68
48792;BME280;34587;48.816;9.420;2023-04-15T05:58:44;97877.53;;;3.33;88.69
48792;BME280;34587;48.816;9.420;2023-04-15T06:01:10;97876.63;;;3.54;88.76
48792;BME280;34587;48.816;9.420;2023-04-15T06:03:36;97874.63;;;4.04;87.59
48792;BME280;34587;48.816;9.420;2023-04-15T06:06:02;97877.91;;;4.20;84.80
48792;BME280;34587;48.816;9.420;2023-04-15T06:08:27;97874.50;;;4.19;83.93
48792;BME280;34587;48.816;9.420;2023-04-15T06:10:53;97881.09;;;4.52;84.45
48792;BME280;34587;48.816;9.420;2023-04-15T06:13:18;97879.34;;;4.56;83.24
48792;BME280;34587;48.816;9.420;2023-04-15T06:15:43;97873.34;;;4.60;82.79
48792;BME280;34587;48.816;9.420;2023-04-15T06:18:09;97870.88;;;4.45;83.24
48792;BME280;34587;48.816;9.420;2023-04-15T06:20:34;97879.31;;;4.59;83.55
48792;BME280;34587;48.816;9.420;2023-04-15T06:23:00;97880.13;;;4.64;82.53
48792;BME280;34587;48.816;9.420;2023-04-15T06:25:26;97874.91;;;4.76;82.75
48792;BME280;34587;48.816;9.420;2023-04-15T06:27:51;97874.28;;;5.31;80.89
48792;BME280;34587;48.816;9.420;2023-04-15T06:30:16;97870.59;;;5.57;78.38
48792;BME280;34587;48.816;9.420;2023-04-15T06:32:42;97871.88;;;5.87;77.66
48792;BME280;34587;48.816;9.420;2023-04-15T06:35:07;97875.53;;;6.32;76.65
48792;BME280;34587;48.816;9.420;2023-04-15T06:37:33;97866.50;;;6.61;74.31
48792;BME280;34587;48.816;9.420;2023-04-15T06:39:58;97867.41;;;6.58;73.47
48792;BME280;34587;48.816;9.420;2023-04-15T06:42:24;97874.63;;;6.86;72.34
48792;BME280;34587;48.816;9.420;2023-04-15T06:44:49;97873.69;;;6.91;70.53
48792;BME280;34587;48.816;9.420;2023-04-15T06:47:15;97873.47;;;7.04;70.73
48792;BME280;34587;48.816;9.420;2023-04-15T06:49:40;97874.44;;;7.41;68.51
48792;BME280;34587;48.816;9.420;2023-04-15T06:52:07;97875.25;;;7.43;68.05
48792;BME280;34587;48.816;9.420;2023-04-15T06:54:32;97874.81;;;7.23;67.60
48792;BME280;34587;48.816;9.420;2023-04-15T06:56:58;97869.69;;;7.20;67.85
48792;BME280;34587;48.816;9.420;2023-04-15T06:59:23;97868.56;;;7.35;67.88
48792;BME280;34587;48.816;9.420;2023-04-15T07:01:49;97865.38;;;7.64;67.06
48792;BME280;34587;48.816;9.420;2023-04-15T07:04:14;97862.69;;;8.09;66.55
48792;BME280;34587;48.816;9.420;2023-04-15T07:06:39;97855.09;;;8.41;64.46
48792;BME280;34587;48.816;9.420;2023-04-15T07:09:05;97860.94;;;8.48;65.62
48792;BME280;34587;48.816;9.420;2023-04-15T07:11:31;97856.78;;;8.77;63.92
48792;BME280;34587;48.816;9.420;2023-04-15T07:13:57;97851.78;;;8.70;63.96
48792;BME280;34587;48.816;9.420;2023-04-15T07:16:22;97851.56;;;9.11;62.83
48792;BME280;34587;48.816;9.420;2023-04-15T07:18:48;97851.88;;;9.31;62.58
48792;BME280;34587;48.816;9.420;2023-04-15T07:21:13;97859.91;;;9.81;61.43
48792;BME280;34587;48.816;9.420;2023-04-15T07:23:38;97849.13;;;9.96;60.69
48792;BME280;34587;48.816;9.420;2023-04-15T07:26:04;97856.06;;;10.22;60.85
48792;BME280;34587;48.816;9.420;2023-04-15T07:28:30;97849.56;;;10.09;59.49
48792;BME280;34587;48.816;9.420;2023-04-15T07:30:55;97858.66;;;10.22;60.42
48792;BME280;34587;48.816;9.420;2023-04-15T07:33:23;97856.91;;;10.23;59.61
48792;BME280;34587;48.816;9.420;2023-04-15T07:35:49;97857.31;;;10.11;60.03
48792;BME280;34587;48.816;9.420;2023-04-15T07:38:14;97854.28;;;9.96;60.09
48792;BME280;34587;48.816;9.420;2023-04-15T07:40:40;97849.28;;;10.46;58.41
48792;BME280;34587;48.816;9.420;2023-04-15T07:43:06;97850.41;;;11.39;56.14
48792;BME280;34587;48.816;9.420;2023-04-15T07:45:32;97846.03;;;12.32;52.90
48792;BME280;34587;48.816;9.420;2023-04-15T07:47:57;97841.13;;;14.24;49.61
48792;BME280;34587;48.816;9.420;2023-04-15T07:50:23;97835.59;;;17.06;42.56
48792;BME280;34587;48.816;9.420;2023-04-15T07:52:51;97840.53;;;17.55;39.42
48792;BME280;34587;48.816;9.420;2023-04-15T07:55:18;97840.44;;;16.84;39.29
48792;BME280;34587;48.816;9.420;2023-04-15T07:57:45;97846.88;;;17.37;39.83
48792;BME280;34587;48.816;9.420;2023-04-15T08:00:12;97838.44;;;18.84;36.88
48792;BME280;34587;48.816;9.420;2023-04-15T08:02:38;97834.84;;;18.45;36.57
48792;BME280;34587;48.816;9.420;2023-04-15T08:05:03;97830.84;;;18.80;36.26
48792;BME280;34587;48.816;9.420;2023-04-15T08:07:29;97834.69;;;18.34;36.25
48792;BME280;34587;48.816;9.420;2023-04-15T08:09:55;97820.84;;;20.60;33.39
48792;BME280;34587;48.816;9.420;2023-04-15T08:12:20;97825.00;;;20.51;32.88
48792;BME280;34587;48.816;9.420;2023-04-15T08:14:46;97813.06;;;22.61;30.30
48792;BME280;34587;48.816;9.420;2023-04-15T08:17:11;97816.28;;;22.96;29.69
48792;BME280;34587;48.816;9.420;2023-04-15T08:19:37;97825.78;;;22.67;28.43
48792;BME280;34587;48.816;9.420;2023-04-15T08:22:02;97821.50;;;22.22;28.49
48792;BME280;34587;48.816;9.420;2023-04-15T08:24:27;97832.31;;;21.74;30.26
48792;BME280;34587;48.816;9.420;2023-04-15T08:26:53;97822.03;;;24.33;26.82
48792;BME280;34587;48.816;9.420;2023-04-15T08:29:18;97825.97;;;23.58;27.28
48792;BME280;34587;48.816;9.420;2023-04-15T08:31:43;97824.09;;;25.83;24.53
48792;BME280;34587;48.816;9.420;2023-04-15T08:34:10;97830.69;;;23.85;26.54
48792;BME280;34587;48.816;9.420;2023-04-15T08:36:36;97830.84;;;22.91;27.09
48792;BME280;34587;48.816;9.420;2023-04-15T08:39:02;97825.16;;;24.58;26.20
48792;BME280;34587;48.816;9.420;2023-04-15T08:41:33;97827.13;;;24.06;26.01
48792;BME280;34587;48.816;9.420;2023-04-15T08:44:02;97816.63;;;24.54;25.63
48792;BME280;34587;48.816;9.420;2023-04-15T08:46:30;97832.31;;;21.63;29.46
48792;BME280;34587;48.816;9.420;2023-04-15T08:48:57;97830.72;;;20.09;31.45
48792;BME280;34587;48.816;9.420;2023-04-15T08:51:23;97841.31;;;18.67;33.87
48792;BME280;34587;48.816;9.420;2023-04-15T08:53:49;97826.75;;;20.03;32.35
48792;BME280;34587;48.816;9.420;2023-04-15T08:56:15;97824.06;;;21.68;30.14
48792;BME280;34587;48.816;9.420;2023-04-15T08:58:43;97822.47;;;23.58;27.67
48792;BME280;34587;48.816;9.420;2023-04-15T09:01:10;97820.28;;;23.63;26.78
48792;BME280;34587;48.816;9.420;2023-04-15T09:03:36;97834.31;;;22.27;29.40
48792;BME280;34587;48.816;9.420;2023-04-15T09:06:03;97834.00;;;18.85;34.55
48792;BME280;34587;48.816;9.420;2023-04-15T09:08:28;97825.84;;;19.79;34.14
48792;BME280;34587;48.816;9.420;2023-04-15T09:10:54;97821.34;;;20.65;33.79
48792;BME280;34587;48.816;9.420;2023-04-15T09:13:19;97825.28;;;21.06;32.16
48792;BME280;34587;48.816;9.420;2023-04-15T09:15:45;97825.09;;;18.47;36.05
48792;BME280;34587;48.816;9.420;2023-04-15T09:18:11;97827.25;;;18.41;36.75
48792;BME280;34587;48.816;9.420;2023-04-15T09:20:40;97843.13;;;17.69;37.82
48792;BME280;34587;48.816;9.420;2023-04-15T09:23:12;97837.78;;;18.27;36.83
48792;BME280;34587;48.816;9.420;2023-04-15T09:25:39;97836.47;;;19.13;35.54
48792;BME280;34587;48.816;9.420;2023-04-15T09:28:06;97844.25;;;16.62;38.19
48792;BME280;34587;48.816;9.420;2023-04-15T09:30:32;97841.59;;;16.94;37.93
48792;BME280;34587;48.816;9.420;2023-04-15T09:32:59;97842.28;;;16.82;38.51
48792;BME280;34587;48.816;9.420;2023-04-15T09:35:26;97846.88;;;16.78;39.01
48792;BME280;34587;48.816;9.420;2023-04-15T09:37:53;97842.31;;;16.96;38.36
48792;BME280;34587;48.816;9.420;2023-04-15T09:41:02;97843.50;;;16.76;37.14
48792;BME280;34587;48.816;9.420;2023-04-15T09:43:39;97841.03;;;18.03;36.21
48792;BME280;34587;48.816;9.420;2023-04-15T09:46:05;97841.41;;;17.11;35.98
48792;BME280;34587;48.816;9.420;2023-04-15T09:48:30;97841.97;;;19.61;33.74
48792;BME280;34587;48.816;9.420;2023-04-15T09:51:00;97842.06;;;21.16;31.03
48792;BME280;34587;48.816;9.420;2023-04-15T09:53:26;97844.88;;;20.19;31.28
48792;BME280;34587;48.816;9.420;2023-04-15T09:55:56;97851.34;;;18.06;35.55
48792;BME280;34587;48.816;9.420;2023-04-15T09:58:27;97856.63;;;16.29;38.19
48792;BME280;34587;48.816;9.420;2023-04-15T10:00:53;97847.13;;;17.04;38.25
48792;BME280;34587;48.816;9.420;2023-04-15T10:03:22;97839.19;;;18.86;34.85
48792;BME280;34587;48.816;9.420;2023-04-15T10:05:49;97840.88;;;21.09;31.60
48792;BME280;34587;48.816;9.420;2023-04-15T10:08:23;97858.56;;;17.88;35.20
48792;BME280;34587;48.816;9.420;2023-04-15T10:10:49;97846.34;;;17.75;38.11
48792;BME280;34587;48.816;9.420;2023-04-15T10:13:18;97842.78;;;19.49;34.67
48792;BME280;34587;48.816;9.420;2023-04-15T10:15:44;97841.66;;;18.48;36.46
48792;BME280;34587;48.816;9.420;2023-04-15T10:18:14;97852.31;;;17.91;36.36
48792;BME280;34587;48.816;9.420;2023-04-15T10:20:40;97849.19;;;18.40;36.61
48792;BME280;34587;48.816;9.420;2023-04-15T10:23:07;97863.00;;;16.39;38.98
48792;BME280;34587;48.816;9.420;2023-04-15T10:25:33;97858.09;;;17.39;36.99
48792;BME280;34587;48.816;9.420;2023-04-15T10:27:59;97852.47;;;17.16;37.57
48792;BME280;34587;48.816;9.420;2023-04-15T10:30:24;97852.09;;;17.23;37.28
48792;BME280;34587;48.816;9.420;2023-04-15T10:32:50;97856.84;;;17.75;36.92
48792;BME280;34587;48.816;9.420;2023-04-15T10:35:17;97862.75;;;16.59;39.32
48792;BME280;34587;48.816;9.420;2023-04-15T10:37:45;97864.97;;;16.97;38.34
48792;BME280;34587;48.816;9.420;2023-04-15T10:42:53;97873.97;;;16.61;40.10
48792;BME280;34587;48.816;9.420;2023-04-15T10:45:19;97876.53;;;16.15;38.86
48792;BME280;34587;48.816;9.420;2023-04-15T10:47:45;97875.88;;;16.12;38.68
48792;BME280;34587;48.816;9.420;2023-04-15T10:50:10;97876.94;;;16.24;38.85
48792;BME280;34587;48.816;9.420;2023-04-15T10:52:39;97870.44;;;15.99;39.55
48792;BME280;34587;48.816;9.420;2023-04-15T10:57:38;97864.53;;;16.59;39.66
48792;BME280;34587;48.816;9.420;2023-04-15T11:00:14;97876.59;;;16.91;38.59
48792;BME280;34587;48.816;9.420;2023-04-15T11:02:55;97873.59;;;16.67;38.08
48792;BME280;34587;48.816;9.420;2023-04-15T11:06:07;97862.66;;;17.21;36.61
48792;BME280;34587;48.816;9.420;2023-04-15T11:08:09;97857.50;;;18.19;35.86
48792;BME280;34587;48.816;9.420;2023-04-15T11:13:02;97877.94;;;15.23;39.98
48792;BME280;34587;48.816;9.420;2023-04-15T11:15:41;97873.59;;;16.22;40.46
48792;BME280;34587;48.816;9.420;2023-04-15T11:20:37;97869.03;;;15.60;38.34
48792;BME280;34587;48.816;9.420;2023-04-15T11:23:04;97863.97;;;16.06;38.01
48792;BME280;34587;48.816;9.420;2023-04-15T11:25:33;97871.78;;;16.38;38.12
48792;BME280;34587;48.816;9.420;2023-04-15T11:28:00;97863.69;;;16.74;38.33
48792;BME280;34587;48.816;9.420;2023-04-15T11:30:28;97881.94;;;14.96;39.97
48792;BME280;34587;48.816;9.420;2023-04-15T11:32:57;97874.81;;;15.67;40.35
48792;BME280;34587;48.816;9.420;2023-04-15T11:35:23;97884.69;;;16.09;40.03
48792;BME280;34587;48.816;9.420;2023-04-15T11:37:49;97889.91;;;15.93;39.18
48792;BME280;34587;48.816;9.420;2023-04-15T11:40:15;97893.31;;;16.11;39.30
48792;BME280;34587;48.816;9.420;2023-04-15T11:42:42;97887.78;;;15.68;39.46
48792;BME280;34587;48.816;9.420;2023-04-15T11:45:10;97891.63;;;16.26;38.97
48792;BME280;34587;48.816;9.420;2023-04-15T11:47:36;97891.03;;;16.37;37.69
48792;BME280;34587;48.816;9.420;2023-04-15T11:50:15;97900.59;;;15.73;39.18
48792;BME280;34587;48.816;9.420;2023-04-15T11:53:12;97902.63;;;15.68;38.76
48792;BME280;34587;48.816;9.420;2023-04-15T11:58:23;97902.44;;;14.86;42.98
48792;BME280;34587;48.816;9.420;2023-04-15T12:00:53;97905.88;;;14.86;42.92
48792;BME280;34587;48.816;9.420;2023-04-15T12:03:26;97910.41;;;15.00;43.60
48792;BME280;34587;48.816;9.420;2023-04-15T12:08:55;97912.06;;;14.67;43.71
48792;BME280;34587;48.816;9.420;2023-04-15T12:11:31;97922.34;;;13.75;44.98
48792;BME280;34587;48.816;9.420;2023-04-15T12:14:15;97928.00;;;13.85;44.02
48792;BME280;34587;48.816;9.420;2023-04-15T12:16:46;97926.88;;;14.09;42.99
48792;BME280;34587;48.816;9.420;2023-04-15T12:19:14;97932.09;;;13.91;43.65
48792;BME280;34587;48.816;9.420;2023-04-15T12:21:43;97929.59;;;13.48;46.07
48792;BME280;34587;48.816;9.420;2023-04-15T12:24:09;97938.19;;;13.71;45.91
48792;BME280;34587;48.816;9.420;2023-04-15T12:26:42;97942.63;;;13.28;46.30
48792;BME280;34587;48.816;9.420;2023-04-15T12:29:10;97941.78;;;13.48;46.01
48792;BME280;34587;48.816;9.420;2023-04-15T12:31:38;97944.78;;;13.38;46.81
48792;BME280;34587;48.816;9.420;2023-04-15T12:34:10;97946.63;;;13.15;48.36
48792;BME280;34587;48.816;9.420;2023-04-15T12:36:35;97959.59;;;12.94;50.13
48792;BME280;34587;48.816;9.420;2023-04-15T12:39:04;97968.09;;;12.55;48.64
48792;BME280;34587;48.816;9.420;2023-04-15T12:41:30;97986.31;;;12.32;49.76
48792;BME280;34587;48.816;9.420;2023-04-15T12:43:56;97987.13;;;12.11;48.69
48792;BME280;34587;48.816;9.420;2023-04-15T12:46:21;97990.28;;;12.19;50.11
48792;BME280;34587;48.816;9.420;2023-04-15T12:48:47;97994.97;;;11.84;49.62
48792;BME280;34587;48.816;9.420;2023-04-15T12:51:13;98006.09;;;11.63;52.51
48792;BME280;34587;48.816;9.420;2023-04-15T12:53:38;98021.44;;;11.69;49.57
48792;BME280;34587;48.816;9.420;2023-04-15T12:56:03;98026.53;;;11.47;52.72
48792;BME280;34587;48.816;9.420;2023-04-15T12:58:29;98018.34;;;11.07;54.07
48792;BME280;34587;48.816;9.420;2023-04-15T13:00:54;98028.88;;;11.01;55.85
48792;BME280;34587;48.816;9.420;2023-04-15T13:03:20;98033.06;;;11.05;56.39
48792;BME280;34587;48.816;9.420;2023-04-15T13:05:45;98039.66;;;10.88;55.88
48792;BME280;34587;48.816;9.420;2023-04-15T13:08:10;98033.97;;;11.04;55.98
48792;BME280;34587;48.816;9.420;2023-04-15T13:10:36;98035.38;;;11.15;55.66
48792;BME280;34587;48.816;9.420;2023-04-15T13:13:01;98031.28;;;11.34;51.87
48792;BME280;34587;48.816;9.420;2023-04-15T13:15:28;98026.31;;;11.53;48.98
48792;BME280;34587;48.816;9.420;2023-04-15T13:17:53;98029.91;;;11.74;47.27
48792;BME280;34587;48.816;9.420;2023-04-15T13:20:18;98025.25;;;12.08;48.04
48792;BME280;34587;48.816;9.420;2023-04-15T13:22:44;98038.47;;;12.26;47.19
48792;BME280;34587;48.816;9.420;2023-04-15T13:25:09;98041.41;;;12.40;46.59
48792;BME280;34587;48.816;9.420;2023-04-15T13:27:35;98044.34;;;12.31;46.28
48792;BME280;34587;48.816;9.420;2023-04-15T13:30:01;98047.41;;;12.42;42.67
48792;BME280;34587;48.816;9.420;2023-04-15T13:32:26;98044.69;;;12.45;42.83
48792;BME280;34587;48.816;9.420;2023-04-15T13:34:51;98048.28;;;12.65;44.28
48792;BME280;34587;48.816;9.420;2023-04-15T13:37:17;98052.72;;;12.63;42.27
48792;BME280;34587;48.816;9.420;2023-04-15T13:39:42;98057.91;;;12.63;40.21
48792;BME280;34587;48.816;9.420;2023-04-15T13:42:07;98058.91;;;12.82;41.21
48792;BME280;34587;48.816;9.420;2023-04-15T13:44:33;98057.34;;;13.22;40.60
48792;BME280;34587;48.816;9.420;2023-04-15T13:46:59;98050.75;;;13.35;39.94
48792;BME280;34587;48.816;9.420;2023-04-15T13:49:24;98061.81;;;12.96;39.91
48792;BME280;34587;48.816;9.420;2023-04-15T13:51:50;98062.63;;;12.75;40.72
48792;BME280;34587;48.816;9.420;2023-04-15T13:54:16;98056.09;;;12.18;41.31
48792;BME280;34587;48.816;9.420;2023-04-15T13:56:41;98050.47;;;12.30;39.74
48792;BME280;34587;48.816;9.420;2023-04-15T13:59:06;98054.25;;;12.45;41.08
48792;BME280;34587;48.816;9.420;2023-04-15T14:01:33;98059.25;;;12.26;41.28
48792;BME280;34587;48.816;9.420;2023-04-15T14:03:59;98061.63;;;12.55;41.30
48792;BME280;34587;48.816;9.420;2023-04-15T14:06:24;98069.91;;;12.43;40.16
48792;BME280;34587;48.816;9.420;2023-04-15T14:08:51;98062.53;;;12.54;38.22
48792;BME280;34587;48.816;9.420;2023-04-15T14:11:16;98073.38;;;12.19;37.89
48792;BME280;34587;48.816;9.420;2023-04-15T14:13:42;98073.72;;;12.09;39.03
48792;BME280;34587;48.816;9.420;2023-04-15T14:16:07;98077.41;;;12.51;38.67
48792;BME280;34587;48.816;9.420;2023-04-15T14:18:32;98075.50;;;12.07;39.72
48792;BME280;34587;48.816;9.420;2023-04-15T14:20:58;98067.56;;;11.87;40.77
48792;BME280;34587;48.816;9.420;2023-04-15T14:23:23;98077.72;;;11.93;40.90
48792;BME280;34587;48.816;9.420;2023-04-15T14:25:49;98077.38;;;11.77;41.33
48792;BME280;34587;48.816;9.420;2023-04-15T14:28:15;98081.66;;;11.78;41.47
48792;BME280;34587;48.816;9.420;2023-04-15T14:30:40;98096.66;;;11.70;43.18
48792;BME280;34587;48.816;9.420;2023-04-15T14:33:05;98101.19;;;11.64;43.22
48792;BME280;34587;48.816;9.420;2023-04-15T14:35:31;98103.00;;;11.62;43.28
48792;BME280;34587;48.816;9.420;2023-04-15T14:37:56;98107.47;;;11.30;44.11
48792;BME280;34587;48.816;9.420;2023-04-15T14:40:22;98120.41;;;11.31;44.48
48792;BME280;34587;48.816;9.420;2023-04-15T14:42:47;98121.72;;;11.17;44.69
48792;BME280;34587;48.816;9.420;2023-04-15T14:45:12;98124.84;;;11.28;45.34
48792;BME280;34587;48.816;9.420;2023-04-15T14:47:38;98126.16;;;11.41;45.07
48792;BME280;34587;48.816;9.420;2023-04-15T14:50:03;98126.81;;;11.20;45.94
48792;BME280;34587;48.816;9.420;2023-04-15T14:52:30;98119.47;;;11.34;46.11
48792;BME280;34587;48.816;9.420;2023-04-15T14:54:57;98118.53;;;11.63;45.66
48792;BME280;34587;48.816;9.420;2023-04-15T14:57:22;98126.03;;;11.44;46.71
48792;BME280;34587;48.816;9.420;2023-04-15T14:59:47;98122.38;;;11.51;46.63
48792;BME280;34587;48.816;9.420;2023-04-15T15:02:13;98137.19;;;11.48;46.76
48792;BME280;34587;48.816;9.420;2023-04-15T15:04:38;98134.66;;;11.46;46.85
48792;BME280;34587;48.816;9.420;2023-04-15T15:07:04;98138.88;;;11.49;46.72
48792;BME280;34587;48.816;9.420;2023-04-15T15:09:30;98152.66;;;11.23;48.04
48792;BME280;34587;48.816;9.420;2023-04-15T15:11:56;98142.00;;;11.32;47.91
48792;BME280;34587;48.816;9.420;2023-04-15T15:14:21;98153.97;;;11.36;48.42
48792;BME280;34587;48.816;9.420;2023-04-15T15:16:47;98159.69;;;11.19;47.80
48792;BME280;34587;48.816;9.420;2023-04-15T15:19:12;98170.72;;;11.26;50.23
48792;BME280;34587;48.816;9.420;2023-04-15T15:21:38;98168.59;;;11.11;48.46
48792;BME280;34587;48.816;9.420;2023-04-15T15:24:03;98181.69;;;11.06;50.40
48792;BME280;34587;48.816;9.420;2023-04-15T15:26:29;98171.72;;;10.92;51.06
48792;BME280;34587;48.816;9.420;2023-04-15T15:28:54;98174.09;;;10.70;50.81
48792;BME280;34587;48.816;9.420;2023-04-15T15:31:19;98173.25;;;10.70;50.10
48792;BME280;34587;48.816;9.420;2023-04-15T15:33:45;98182.03;;;10.64;50.20
48792;BME280;34587;48.816;9.420;2023-04-15T15:36:10;98176.81;;;10.66;50.64
48792;BME280;34587;48.816;9.420;2023-04-15T15:38:35;98181.72;;;10.75;50.71
48792;BME280;34587;48.816;9.420;2023-04-15T15:41:00;98190.03;;;10.86;50.31
48792;BME280;34587;48.816;9.420;2023-04-15T15:43:26;98192.16;;;10.72;53.35
48792;BME280;34587;48.816;9.420;2023-04-15T15:45:51;98198.56;;;10.60;53.88
48792;BME280;34587;48.816;9.420;2023-04-15T15:48:19;98199.53;;;10.56;54.39
48792;BME280;34587;48.816;9.420;2023-04-15T15:50:45;98193.97;;;10.70;54.08
48792;BME280;34587;48.816;9.420;2023-04-15T15:53:10;98204.41;;;10.67;55.98
48792;BME280;34587;48.816;9.420;2023-04-15T15:55:36;98212.19;;;10.67;55.13
48792;BME280;34587;48.816;9.420;2023-04-15T15:58:01;98213.31;;;10.57;54.80
48792;BME280;34587;48.816;9.420;2023-04-15T16:00:27;98210.13;;;10.47;56.09
48792;BME280;34587;48.816;9.420;2023-04-15T16:02:54;98218.69;;;10.50;56.35
48792;BME280;34587;48.816;9.420;2023-04-15T16:05:21;98233.75;;;10.35;57.98
48792;BME280;34587;48.816;9.420;2023-04-15T16:07:46;98238.31;;;10.25;59.28
48792;BME280;34587;48.816;9.420;2023-04-15T16:10:11;98250.88;;;10.04;59.08
48792;BME280;34587;48.816;9.420;2023-04-15T16:12:38;98252.09;;;9.90;61.11
48792;BME280;34587;48.816;9.420;2023-04-15T16:15:03;98258.13;;;9.90;64.80
48792;BME280;34587;48.816;9.420;2023-04-15T16:17:29;98272.44;;;9.68;68.42
48792;BME280;34587;48.816;9.420;2023-04-15T16:19:54;98276.66;;;9.33;71.56
48792;BME280;34587;48.816;9.420;2023-04-15T16:22:20;98279.09;;;9.39;73.83
48792;BME280;34587;48.816;9.420;2023-04-15T16:24:46;98279.41;;;9.25;74.16
48792;BME280;34587;48.816;9.420;2023-04-15T16:27:11;98287.09;;;9.27;76.66
48792;BME280;34587;48.816;9.420;2023-04-15T16:29:40;98299.53;;;9.10;79.76
48792;BME280;34587;48.816;9.420;2023-04-15T16:32:05;98294.25;;;8.69;79.17
48792;BME280;34587;48.816;9.420;2023-04-15T16:34:31;98299.13;;;8.86;82.26
48792;BME280;34587;48.816;9.420;2023-04-15T16:36:56;98288.84;;;8.83;81.57
48792;BME280;34587;48.816;9.420;2023-04-15T16:39:22;98292.28;;;8.84;84.20
48792;BME280;34587;48.816;9.420;2023-04-15T16:41:48;98293.06;;;8.87;84.05
48792;BME280;34587;48.816;9.420;2023-04-15T16:44:13;98304.66;;;8.65;84.96
48792;BME280;34587;48.816;9.420;2023-04-15T16:46:38;98310.50;;;8.76;85.25
48792;BME280;34587;48.816;9.420;2023-04-15T16:49:04;98315.81;;;8.68;86.26
48792;BME280;34587;48.816;9.420;2023-04-15T16:51:29;98322.13;;;8.52;88.65
48792;BME280;34587;48.816;9.420;2023-04-15T16:53:55;98324.78;;;8.47;89.56
48792;BME280;34587;48.816;9.420;2023-04-15T16:56:21;98326.53;;;8.45;90.97
48792;BME280;34587;48.816;9.420;2023-04-15T16:58:46;98330.91;;;8.42;90.68
48792;BME280;34587;48.816;9.420;2023-04-15T17:01:12;98330.22;;;8.29;90.88
48792;BME280;34587;48.816;9.420;2023-04-15T17:03:37;98337.91;;;8.31;90.82
48792;BME280;34587;48.816;9.420;2023-04-15T17:06:04;98337.13;;;8.27;91.61
48792;BME280;34587;48.816;9.420;2023-04-15T17:08:29;98340.53;;;8.29;92.25
48792;BME280;34587;48.816;9.420;2023-04-15T17:10:56;98338.84;;;8.28;92.38
48792;BME280;34587;48.816;9.420;2023-04-15T17:13:21;98346.66;;;8.23;90.94
48792;BME280;34587;48.816;9.420;2023-04-15T17:15:46;98354.50;;;8.16;91.49
48792;BME280;34587;48.816;9.420;2023-04-15T17:18:12;98356.19;;;8.17;92.68
48792;BME280;34587;48.816;9.420;2023-04-15T17:20:37;98366.81;;;7.98;92.35
48792;BME280;34587;48.816;9.420;2023-04-15T17:23:03;98360.69;;;8.06;93.95
48792;BME280;34587;48.816;9.420;2023-04-15T17:25:28;98371.06;;;8.01;96.28
48792;BME280;34587;48.816;9.420;2023-04-15T17:27:54;98374.56;;;7.98;96.09
48792;BME280;34587;48.816;9.420;2023-04-15T17:30:21;98384.94;;;7.94;97.04
48792;BME280;34587;48.816;9.420;2023-04-15T17:32:47;98386.72;;;7.87;97.83